createdAt,value
2022-11-22T00:00:41.036Z,2.28
2022-11-22T00:03:08.652Z,1.52
2022-11-22T00:05:35.586Z,2.47
2022-11-22T00:08:03.319Z,2.10
2022-11-22T00:10:29.942Z,2.95
2022-11-22T00:12:56.592Z,1.73
2022-11-22T00:15:23.249Z,2.05
2022-11-22T00:17:49.879Z,2.60
2022-11-22T00:20:16.570Z,2.03
2022-11-22T00:22:44.956Z,2.30
2022-11-22T00:25:13.269Z,2.88
2022-11-22T00:27:40.029Z,2.10
2022-11-22T00:30:07.918Z,2.50
2022-11-22T00:32:34.563Z,2.50
2022-11-22T00:35:01.163Z,2.58
2022-11-22T00:37:27.819Z,3.00
2022-11-22T00:39:54.485Z,2.22
2022-11-22T00:42:21.075Z,2.35
2022-11-22T00:44:47.664Z,2.00
2022-11-22T00:47:14.255Z,2.47
2022-11-22T00:49:40.891Z,2.90
2022-11-22T00:52:07.513Z,2.28
2022-11-22T00:54:34.115Z,3.40
2022-11-22T00:57:00.717Z,3.45
2022-11-22T00:59:27.580Z,2.95
2022-11-22T01:01:54.415Z,2.58
2022-11-22T01:04:21.190Z,2.28
2022-11-22T01:06:47.821Z,3.50
2022-11-22T01:09:20.627Z,1.77
2022-11-22T01:11:47.527Z,2.33
2022-11-22T01:14:15.158Z,2.33
2022-11-22T01:16:42.636Z,3.95
2022-11-22T01:19:09.567Z,2.20
2022-11-22T01:21:36.834Z,2.40
2022-11-22T01:24:03.768Z,2.42
2022-11-22T01:26:30.412Z,2.60
2022-11-22T01:28:57.020Z,2.33
2022-11-22T01:31:23.620Z,2.65
2022-11-22T01:33:50.207Z,2.38
2022-11-22T01:36:16.854Z,2.38
2022-11-22T01:38:43.507Z,2.15
2022-11-22T01:41:10.098Z,1.45
2022-11-22T01:43:36.691Z,2.55
2022-11-22T01:46:09.791Z,2.10
2022-11-22T01:49:12.493Z,2.40
2022-11-22T01:51:49.437Z,1.83
2022-11-22T01:54:22.485Z,2.20
2022-11-22T01:56:56.915Z,1.63
2022-11-22T01:59:28.549Z,1.90
2022-11-22T02:01:55.897Z,2.00
2022-11-22T02:04:28.593Z,2.00
2022-11-22T02:07:18.471Z,2.78
2022-11-22T02:09:48.277Z,1.55
2022-11-22T02:12:17.138Z,1.27
2022-11-22T02:14:44.340Z,1.98
2022-11-22T02:17:10.940Z,1.80
2022-11-22T02:19:40.087Z,2.08
2022-11-22T02:22:24.938Z,1.58
2022-11-22T02:25:18.683Z,2.05
2022-11-22T02:27:45.632Z,1.77
2022-11-22T02:30:14.157Z,1.83
2022-11-22T02:32:40.927Z,2.10
2022-11-22T02:35:23.395Z,1.70
2022-11-22T02:38:14.006Z,1.80
2022-11-22T02:40:49.042Z,1.95
2022-11-22T02:43:23.615Z,2.90
2022-11-22T02:45:50.213Z,2.38
2022-11-22T02:48:18.335Z,2.13
2022-11-22T02:50:45.645Z,2.10
2022-11-22T02:53:13.146Z,2.33
2022-11-22T02:55:39.922Z,2.40
2022-11-22T02:58:06.813Z,1.95
2022-11-22T03:00:36.392Z,2.35
2022-11-22T03:03:03.287Z,2.70
2022-11-22T03:05:29.883Z,1.70
2022-11-22T03:07:56.480Z,2.22
2022-11-22T03:10:23.133Z,2.17
2022-11-22T03:12:49.704Z,3.03
2022-11-22T03:15:16.300Z,2.55
2022-11-22T03:17:42.932Z,1.80
2022-11-22T03:20:10.027Z,2.65
2022-11-22T03:22:36.644Z,2.58
2022-11-22T03:25:03.934Z,2.55
2022-11-22T03:27:30.607Z,2.25
2022-11-22T03:29:57.216Z,2.20
2022-11-22T03:32:23.820Z,2.15
2022-11-22T03:34:50.467Z,2.28
2022-11-22T03:37:17.082Z,2.65
2022-11-22T03:39:43.754Z,2.67
2022-11-22T03:42:10.368Z,2.80
2022-11-22T03:44:36.979Z,3.08
2022-11-22T03:47:03.670Z,2.38
2022-11-22T03:49:30.551Z,2.53
2022-11-22T03:51:57.307Z,2.55
2022-11-22T03:54:23.969Z,2.25
2022-11-22T03:56:50.584Z,2.92
2022-11-22T03:59:17.288Z,2.97
2022-11-22T04:01:44.024Z,2.40
2022-11-22T04:04:11.118Z,2.75
2022-11-22T04:06:38.507Z,2.63
2022-11-22T04:09:05.317Z,3.10
2022-11-22T04:11:32.042Z,2.38
2022-11-22T04:14:17.318Z,3.10
2022-11-22T04:16:43.908Z,2.30
2022-11-22T04:19:10.524Z,3.00
2022-11-22T04:21:37.192Z,1.83
2022-11-22T04:24:26.561Z,3.15
2022-11-22T04:26:54.184Z,3.70
2022-11-22T04:29:21.754Z,2.28
2022-11-22T04:32:08.576Z,2.80
2022-11-22T04:34:36.141Z,2.53
2022-11-22T04:37:04.002Z,2.42
2022-11-22T04:39:30.956Z,2.10
2022-11-22T04:42:16.981Z,3.33
2022-11-22T04:44:44.665Z,2.88
2022-11-22T04:47:34.321Z,3.40
2022-11-22T04:50:02.985Z,3.28
2022-11-22T04:52:48.046Z,2.30
2022-11-22T04:55:14.794Z,1.90
2022-11-22T04:57:41.451Z,2.88
2022-11-22T05:00:08.721Z,3.70
2022-11-22T05:02:35.435Z,2.67
2022-11-22T05:05:02.036Z,2.30
2022-11-22T05:07:28.738Z,2.10
2022-11-22T05:09:55.438Z,3.60
2022-11-22T05:12:22.077Z,2.83
2022-11-22T05:14:48.742Z,2.95
2022-11-22T05:17:15.360Z,4.32
2022-11-22T05:19:46.391Z,3.45
2022-11-22T05:22:16.737Z,3.65
2022-11-22T05:24:43.327Z,2.38
2022-11-22T05:27:09.954Z,3.05
2022-11-22T05:29:36.630Z,2.92
2022-11-22T05:32:04.177Z,3.45
2022-11-22T05:34:30.844Z,2.78
2022-11-22T05:36:57.489Z,4.63
2022-11-22T05:39:24.142Z,2.38
2022-11-22T05:41:56.763Z,2.38
2022-11-22T05:44:24.053Z,2.78
2022-11-22T05:46:50.804Z,2.83
2022-11-22T05:49:17.430Z,2.55
2022-11-22T05:51:44.167Z,4.47
2022-11-22T05:54:10.752Z,3.38
2022-11-22T05:56:37.511Z,2.30
2022-11-22T05:59:04.584Z,2.90
2022-11-22T06:01:31.345Z,2.80
2022-11-22T06:03:58.068Z,4.28
2022-11-22T06:06:24.824Z,3.50
2022-11-22T06:08:51.695Z,4.47
2022-11-22T06:11:21.176Z,3.55
2022-11-22T06:13:51.250Z,4.05
2022-11-22T06:16:18.368Z,4.20
2022-11-22T06:18:45.622Z,3.33
2022-11-22T06:21:15.408Z,3.42
2022-11-22T06:23:42.444Z,2.67
2022-11-22T06:26:13.180Z,3.00
2022-11-22T06:28:40.960Z,4.43
2022-11-22T06:31:26.019Z,3.88
2022-11-22T06:33:59.642Z,4.05
2022-11-22T06:36:31.566Z,4.40
2022-11-22T06:38:58.250Z,4.28
2022-11-22T06:41:28.038Z,4.60
2022-11-22T06:43:57.436Z,4.82
2022-11-22T06:46:26.609Z,4.93
2022-11-22T06:48:53.511Z,3.83
2022-11-22T06:51:26.510Z,4.20
2022-11-22T06:53:57.659Z,5.80
2022-11-22T06:56:35.982Z,4.47
2022-11-22T06:59:05.633Z,6.30
2022-11-22T07:01:34.056Z,6.47
2022-11-22T07:04:01.782Z,4.38
2022-11-22T07:06:32.769Z,5.40
2022-11-22T07:09:01.305Z,3.70
2022-11-22T07:11:31.151Z,3.60
2022-11-22T07:14:07.192Z,4.75
2022-11-22T07:16:36.786Z,4.15
2022-11-22T07:19:04.609Z,3.88
2022-11-22T07:21:32.359Z,3.72
2022-11-22T07:23:59.286Z,4.53
2022-11-22T07:26:26.823Z,4.13
2022-11-22T07:28:53.479Z,4.18
2022-11-22T07:31:20.645Z,4.72
2022-11-22T07:33:47.601Z,3.90
2022-11-22T07:36:20.423Z,4.65
2022-11-22T07:38:48.519Z,4.05
2022-11-22T07:41:16.637Z,4.07
2022-11-22T07:43:43.643Z,3.60
2022-11-22T07:46:29.797Z,3.78
2022-11-22T07:48:58.161Z,2.55
2022-11-22T07:51:25.341Z,3.28
2022-11-22T07:53:52.007Z,4.70
2022-11-22T07:56:19.039Z,3.08
2022-11-22T07:58:45.967Z,3.45
2022-11-22T08:01:16.567Z,3.75
2022-11-22T08:03:44.595Z,2.85
2022-11-22T08:06:13.350Z,3.42
2022-11-22T08:08:40.688Z,2.47
2022-11-22T08:11:08.789Z,4.07
2022-11-22T08:13:36.575Z,3.38
2022-11-22T08:16:11.303Z,3.60
2022-11-22T08:18:39.236Z,3.42
2022-11-22T08:21:11.720Z,2.83
2022-11-22T08:23:39.262Z,2.63
2022-11-22T08:26:08.665Z,3.25
2022-11-22T08:28:35.895Z,2.67
2022-11-22T08:31:13.535Z,2.35
2022-11-22T08:33:41.170Z,2.83
2022-11-22T08:36:08.217Z,2.80
2022-11-22T08:38:34.980Z,2.90
2022-11-22T08:41:03.003Z,2.17
2022-11-22T08:43:30.825Z,2.20
2022-11-22T08:45:59.038Z,2.17
2022-11-22T08:48:26.686Z,1.75
2022-11-22T08:50:55.995Z,2.15
2022-11-22T08:53:23.530Z,2.13
2022-11-22T08:55:50.368Z,2.35
2022-11-22T08:58:17.434Z,2.45
2022-11-22T09:00:44.283Z,1.88
2022-11-22T09:03:10.985Z,1.92
2022-11-22T09:08:24.710Z,2.70
2022-11-22T09:10:51.413Z,2.63
2022-11-22T09:13:18.051Z,1.70
2022-11-22T09:15:44.685Z,1.75
2022-11-22T09:18:11.397Z,2.05
2022-11-22T09:20:38.112Z,1.35
2022-11-22T09:23:04.866Z,1.77
2022-11-22T09:25:31.555Z,1.20
2022-11-22T09:28:04.534Z,2.83
2022-11-22T09:30:31.540Z,1.13
2022-11-22T09:32:58.363Z,1.70
2022-11-22T09:35:25.001Z,1.83
2022-11-22T09:37:51.648Z,1.13
2022-11-22T09:40:18.444Z,1.65
2022-11-22T09:43:04.006Z,1.98
2022-11-22T09:45:56.845Z,2.25
2022-11-22T09:48:47.534Z,1.25
2022-11-22T09:51:27.497Z,2.03
2022-11-22T09:54:15.984Z,1.23
2022-11-22T09:56:43.973Z,1.63
2022-11-22T09:59:28.944Z,1.73
2022-11-22T10:02:16.870Z,1.77
2022-11-22T10:04:54.834Z,2.13
2022-11-22T10:07:32.764Z,1.33
2022-11-22T10:10:34.332Z,1.20
2022-11-22T10:13:11.393Z,1.90
2022-11-22T10:15:57.214Z,1.67
2022-11-22T10:18:46.416Z,1.20
2022-11-22T10:21:14.940Z,1.45
2022-11-22T10:23:43.887Z,1.20
2022-11-22T10:26:34.206Z,2.00
2022-11-22T10:29:19.027Z,1.85
2022-11-22T10:32:11.395Z,1.80
2022-11-22T10:35:34.441Z,1.30
2022-11-22T10:38:46.181Z,0.95
2022-11-22T10:42:03.838Z,0.90
2022-11-22T10:47:18.067Z,0.88
2022-11-22T10:50:04.895Z,0.90
2022-11-22T10:53:44.043Z,0.80
2022-11-22T10:56:16.459Z,0.70
2022-11-22T10:59:04.902Z,0.77
2022-11-22T11:01:38.089Z,1.05
2022-11-22T11:04:06.043Z,1.10
2022-11-22T11:07:10.422Z,0.80
2022-11-22T11:12:45.153Z,0.90
2022-11-22T11:15:36.805Z,0.88
2022-11-22T11:18:12.452Z,0.52
2022-11-22T11:20:43.614Z,0.80
2022-11-22T11:23:15.539Z,0.70
2022-11-22T11:25:48.304Z,1.10
2022-11-22T11:28:30.784Z,0.70
2022-11-22T11:31:10.268Z,0.70
2022-11-22T11:33:39.975Z,0.77
2022-11-22T11:36:33.364Z,1.02
2022-11-22T11:39:00.057Z,1.05
2022-11-22T11:41:32.107Z,0.60
2022-11-22T11:44:05.030Z,0.45
2022-11-22T11:46:40.638Z,0.77
2022-11-22T11:49:14.917Z,0.65
2022-11-22T11:51:48.654Z,0.60
2022-11-22T11:54:21.750Z,0.55
2022-11-22T11:56:59.709Z,0.77
2022-11-22T11:59:38.524Z,0.68
2022-11-22T12:02:16.428Z,0.82
2022-11-22T12:05:07.719Z,0.90
2022-11-22T12:07:34.369Z,0.40
2022-11-22T12:10:04.017Z,0.30
2022-11-22T12:13:04.193Z,0.47
2022-11-22T12:16:01.386Z,0.50
2022-11-22T12:19:02.228Z,0.55
2022-11-22T12:22:09.888Z,0.43
2022-11-22T12:25:16.590Z,0.32
2022-11-22T12:27:35.326Z,0.60
2022-11-22T12:30:02.086Z,0.50
2022-11-22T12:32:42.439Z,0.43
2022-11-22T12:35:20.300Z,0.93
2022-11-22T12:38:31.675Z,0.60
2022-11-22T12:41:04.747Z,0.30
2022-11-22T12:43:56.481Z,0.40
2022-11-22T12:46:30.227Z,0.40
2022-11-22T12:49:15.485Z,0.30
2022-11-22T12:52:20.443Z,0.38
2022-11-22T12:54:59.009Z,0.57
2022-11-22T12:57:48.578Z,0.30
2022-11-22T13:00:18.538Z,0.52
2022-11-22T13:02:59.090Z,0.40
2022-11-22T13:05:31.701Z,0.50
2022-11-22T13:08:16.690Z,0.50
2022-11-22T13:10:57.162Z,1.13
2022-11-22T13:13:41.829Z,0.50
2022-11-22T13:16:11.967Z,0.50
2022-11-22T13:19:03.233Z,0.32
2022-11-22T13:21:56.165Z,0.52
2022-11-22T13:24:34.875Z,0.50
2022-11-22T13:27:28.307Z,0.85
2022-11-22T13:29:58.804Z,0.60
2022-11-22T13:32:31.473Z,0.30
2022-11-22T13:35:36.010Z,0.40
2022-11-22T13:38:15.104Z,0.45
2022-11-22T13:40:53.767Z,0.43
2022-11-22T13:43:22.693Z,0.40
2022-11-22T13:46:01.240Z,0.38
2022-11-22T13:48:39.714Z,0.43
2022-11-22T13:51:19.628Z,0.50
2022-11-22T13:53:47.971Z,0.50
2022-11-22T13:56:20.525Z,0.50
2022-11-22T13:59:11.021Z,0.35
2022-11-22T14:01:37.634Z,0.40
2022-11-22T14:04:16.485Z,0.30
2022-11-22T14:07:19.529Z,0.30
2022-11-22T14:09:57.620Z,0.40
2022-11-22T14:12:36.198Z,0.60
2022-11-22T14:15:24.335Z,0.20
2022-11-22T14:18:18.396Z,0.30
2022-11-22T14:21:03.467Z,0.50
2022-11-22T14:24:01.742Z,0.30
2022-11-22T14:27:04.080Z,0.17
2022-11-22T14:30:07.140Z,0.85
2022-11-22T14:33:00.249Z,0.10
2022-11-22T14:35:32.538Z,0.15
2022-11-22T14:38:09.961Z,0.20
2022-11-22T14:40:43.197Z,0.20
2022-11-22T14:43:29.692Z,0.20
2022-11-22T14:46:51.191Z,0.20
2022-11-22T14:49:15.023Z,0.25
2022-11-22T14:51:41.800Z,0.13
2022-11-22T14:54:24.883Z,0.20
2022-11-22T14:56:51.625Z,0.20
2022-11-22T14:59:41.072Z,0.20
2022-11-22T15:02:38.747Z,0.10
2022-11-22T15:09:17.239Z,0.40
2022-11-22T15:09:46.560Z,0.10
2022-11-22T15:12:39.212Z,0.20
2022-11-22T15:57:38.283Z,0.30
2022-11-22T16:00:21.728Z,0.40
2022-11-22T16:03:30.716Z,0.65
2022-11-22T16:06:12.288Z,0.50
2022-11-22T16:08:39.317Z,1.17
2022-11-22T16:11:06.464Z,0.57
2022-11-22T16:13:36.220Z,0.28
2022-11-22T16:16:11.976Z,0.20
2022-11-22T16:18:43.965Z,0.45
2022-11-22T16:21:13.284Z,0.38
2022-11-22T16:23:41.395Z,0.40
2022-11-22T16:26:31.255Z,0.68
2022-11-22T16:29:33.261Z,0.40
2022-11-22T16:32:13.226Z,0.55
2022-11-22T16:34:43.303Z,0.77
2022-11-22T16:37:36.407Z,0.30
2022-11-22T16:40:06.073Z,0.60
2022-11-22T16:42:38.089Z,0.50
2022-11-22T16:45:06.764Z,0.57
2022-11-22T16:47:33.386Z,0.70
2022-11-22T16:50:00.026Z,0.52
2022-11-22T16:52:26.743Z,0.70
2022-11-22T16:54:53.390Z,0.63
2022-11-22T16:57:20.001Z,0.80
2022-11-22T16:59:46.633Z,0.70
2022-11-22T17:02:16.359Z,0.43
2022-11-22T17:04:47.715Z,0.30
2022-11-22T17:07:15.613Z,0.50
2022-11-22T17:09:42.342Z,0.50
2022-11-22T17:12:33.290Z,0.30
2022-11-22T17:15:00.461Z,0.40
2022-11-22T17:17:27.116Z,0.50
2022-11-22T17:19:54.043Z,0.70
2022-11-22T17:22:20.853Z,0.45
2022-11-22T17:24:47.485Z,0.52
2022-11-22T17:27:14.460Z,0.30
2022-11-22T17:29:50.590Z,0.60
2022-11-22T17:32:17.814Z,1.02
2022-11-22T17:34:44.536Z,0.40
2022-11-22T17:37:12.368Z,0.55
2022-11-22T17:39:39.704Z,0.57
2022-11-22T17:42:06.774Z,0.80
2022-11-22T17:44:34.127Z,0.43
2022-11-22T17:47:00.932Z,0.45
2022-11-22T17:49:28.524Z,0.50
2022-11-22T17:51:55.990Z,1.00
2022-11-22T17:54:22.771Z,0.80
2022-11-22T17:56:49.483Z,0.75
2022-11-22T17:59:16.167Z,0.63
2022-11-22T18:01:43.354Z,0.70
2022-11-22T18:04:10.486Z,0.70
2022-11-22T18:06:37.299Z,0.80
2022-11-22T18:09:04.237Z,0.60
2022-11-22T18:11:31.313Z,0.70
2022-11-22T18:13:57.938Z,0.75
2022-11-22T18:16:28.501Z,0.60
2022-11-22T18:18:57.836Z,0.82
2022-11-22T18:21:29.904Z,1.10
2022-11-22T18:24:01.751Z,1.08
2022-11-22T18:26:39.244Z,1.20
2022-11-22T18:31:54.503Z,1.85
2022-11-22T18:34:24.794Z,1.52
2022-11-22T18:37:07.518Z,2.40
2022-11-22T18:39:37.915Z,2.17
2022-11-22T18:42:13.177Z,2.05
2022-11-22T18:44:39.850Z,2.20
2022-11-22T18:47:06.653Z,2.38
2022-11-22T18:49:33.920Z,1.77
2022-11-22T18:52:01.175Z,1.85
2022-11-22T18:54:27.813Z,1.70
2022-11-22T18:56:54.516Z,1.67
2022-11-22T18:59:21.130Z,1.80
2022-11-22T19:01:47.920Z,1.63
2022-11-22T19:04:15.527Z,1.80
2022-11-22T19:06:43.259Z,2.05
2022-11-22T19:09:10.999Z,2.30
2022-11-22T19:11:37.958Z,2.72
2022-11-22T19:14:05.463Z,2.28
2022-11-22T19:16:32.142Z,2.40
2022-11-22T19:18:59.516Z,2.85
2022-11-22T19:21:28.414Z,2.92
2022-11-22T19:23:56.490Z,2.85
2022-11-22T19:26:26.114Z,2.63
2022-11-22T19:28:57.737Z,3.15
2022-11-22T19:31:28.951Z,3.72
2022-11-22T19:33:56.166Z,4.68
2022-11-22T19:36:32.155Z,4.88
2022-11-22T19:39:00.885Z,5.20
2022-11-22T19:41:28.156Z,4.60
2022-11-22T19:43:55.989Z,4.38
2022-11-22T19:46:23.372Z,3.38
2022-11-22T19:48:52.598Z,3.55
2022-11-22T19:51:19.871Z,2.75
2022-11-22T19:53:46.601Z,1.70
2022-11-22T19:56:17.248Z,1.80
2022-11-22T19:58:50.173Z,1.67
2022-11-22T20:01:17.395Z,1.60
2022-11-22T20:03:45.173Z,1.17
2022-11-22T20:06:13.979Z,1.10
2022-11-22T20:08:41.016Z,0.88
2022-11-22T20:11:10.704Z,1.38
2022-11-22T20:13:43.720Z,1.23
2022-11-22T20:16:15.335Z,1.10
2022-11-22T20:18:42.732Z,1.10
2022-11-22T20:21:11.515Z,1.10
2022-11-22T20:23:39.190Z,1.50
2022-11-22T20:26:11.180Z,1.15
2022-11-22T20:28:39.806Z,0.95
2022-11-22T20:31:16.616Z,1.23
2022-11-22T20:33:46.348Z,1.25
2022-11-22T20:36:16.731Z,1.23
2022-11-22T20:38:44.899Z,1.13
2022-11-22T20:41:13.905Z,0.85
2022-11-22T20:43:40.885Z,1.48
2022-11-22T20:46:14.002Z,1.35
2022-11-22T20:48:42.867Z,1.23
2022-11-22T20:51:17.446Z,1.00
2022-11-22T20:53:44.728Z,0.90
2022-11-22T20:56:12.435Z,1.50
2022-11-22T20:58:39.772Z,0.90
2022-11-22T21:01:18.383Z,2.17
2022-11-22T21:03:45.713Z,1.08
2022-11-22T21:06:13.878Z,1.08
2022-11-22T21:08:41.435Z,1.58
2022-11-22T21:11:29.252Z,0.93
2022-11-22T21:13:57.362Z,1.10
2022-11-22T21:16:27.817Z,0.90
2022-11-22T21:19:04.803Z,1.30
2022-11-22T21:21:34.745Z,1.40
2022-11-22T21:24:04.195Z,1.50
2022-11-22T21:26:31.444Z,1.17
2022-11-22T21:28:59.536Z,1.38
2022-11-22T21:31:26.856Z,0.90
2022-11-22T21:33:53.931Z,0.90
2022-11-22T21:36:21.141Z,1.40
2022-11-22T21:38:48.018Z,0.90
2022-11-22T21:44:09.178Z,2.15
2022-11-22T21:46:36.225Z,2.75
2022-11-22T21:49:02.887Z,3.63
2022-11-22T21:51:29.591Z,2.25
2022-11-22T21:54:01.339Z,2.00
2022-11-22T21:56:28.444Z,1.50
2022-11-22T21:58:55.253Z,1.75
2022-11-22T22:01:23.007Z,1.90
2022-11-22T22:03:49.808Z,1.50
2022-11-22T22:06:16.397Z,1.42
2022-11-22T22:08:43.027Z,1.42
2022-11-22T22:11:09.814Z,1.70
2022-11-22T22:13:36.474Z,1.65
2022-11-22T22:16:06.723Z,1.60
2022-11-22T22:18:37.409Z,1.70
2022-11-22T22:21:09.780Z,1.70
2022-11-22T22:23:38.169Z,1.88
2022-11-22T22:26:14.492Z,2.00
2022-11-22T22:28:41.311Z,2.47
2022-11-22T22:31:21.198Z,2.58
2022-11-22T22:33:53.139Z,1.95
2022-11-22T22:36:20.540Z,2.30
2022-11-22T22:38:48.165Z,1.73
2022-11-22T22:41:15.317Z,1.15
2022-11-22T22:43:45.759Z,1.42
2022-11-22T22:46:19.133Z,1.85
2022-11-22T22:48:47.152Z,2.25
2022-11-22T22:51:28.986Z,1.38
2022-11-22T22:53:58.426Z,1.80
2022-11-22T22:56:26.170Z,1.55
2022-11-22T22:58:56.931Z,1.35
2022-11-22T23:01:29.260Z,1.55
2022-11-22T23:04:00.110Z,1.25
2022-11-22T23:06:30.048Z,1.50
2022-11-22T23:08:58.775Z,0.90
2022-11-22T23:11:49.240Z,1.30
2022-11-22T23:14:19.818Z,1.45
2022-11-22T23:16:46.720Z,1.38
2022-11-22T23:19:13.565Z,1.20
2022-11-22T23:21:40.354Z,1.15
2022-11-22T23:24:08.091Z,1.17
2022-11-22T23:26:34.851Z,2.55
2022-11-22T23:29:01.611Z,1.20
2022-11-22T23:31:28.528Z,1.40
2022-11-22T23:33:55.113Z,1.40
2022-11-22T23:36:23.086Z,1.55
2022-11-22T23:38:49.779Z,1.27
2022-11-22T23:41:20.229Z,2.60
2022-11-22T23:43:51.478Z,2.00
2022-11-22T23:46:18.232Z,1.45
2022-11-22T23:48:46.887Z,1.83
2022-11-22T23:51:15.249Z,0.90
2022-11-22T23:53:41.899Z,2.10
2022-11-22T23:56:12.277Z,1.65
2022-11-22T23:58:39.147Z,1.33
